Terminal Aerodrome Forecast
Issued by NWS Tuscon, AZ

Home | Current Version | Previous Version | Text Only | Print | Product List | Glossary On
Versions: 1 2 3 4 5 6 7 8 9 10
624
FTUS45 KTWC 260520
TAFTUS
TAF
KTUS 260520Z 2606/2706 26008KT P6SM SCT250
     FM261000 16006KT P6SM FEW250
     FM262000 30010G18KT P6SM FEW250
     FM270400 25006KT P6SM FEW250=

USA.gov is the U.S. government's official web portal to all federal, state and local government web resources and services.